Time;durP1;ratioP1;P1;durP2;ratioP2;P2;SDS_P1;SDS_P2;PMS_P1;PMS_P2;Temp;Humidity;BMP_temperature;BMP_pressure;BME280_temperature;BME280_humidity;BME280_pressure;Samples;Min_cycle;Max_cycle;Signal;HPM_P1;HPM_P2
2022/03/23 00:02:01;;;;;;;13.13;10.93;;;5.70;62.80;;;;;;5077150;28;20240;-84
2022/03/23 00:04:31;;;;;;;11.30;9.73;;;5.70;62.90;;;;;;5076967;28;20207;-84
2022/03/23 00:07:00;;;;;;;11.55;8.80;;;5.70;62.90;;;;;;5094009;28;20196;-84
2022/03/23 00:09:28;;;;;;;12.13;9.02;;;5.70;63.30;;;;;;5097130;28;20200;-84
2022/03/23 00:12:17;;;;;;;11.70;9.43;;;5.60;62.70;;;;;;5095677;28;20212;-84
2022/03/23 00:14:45;;;;;;;12.98;10.32;;;5.60;64.40;;;;;;5095715;28;20246;-84
2022/03/23 00:17:15;;;;;;;9.98;8.50;;;5.60;63.20;;;;;;5096826;28;20253;-84
2022/03/23 00:19:44;;;;;;;23.58;9.52;;;5.50;63.10;;;;;;5090775;28;20284;-83
2022/03/23 00:22:15;;;;;;;9.75;8.65;;;5.50;64.30;;;;;;5076826;28;20228;-84
2022/03/23 00:24:44;;;;;;;9.02;7.57;;;5.40;63.70;;;;;;5076247;28;20193;-84
2022/03/23 00:27:12;;;;;;;11.52;8.68;;;5.40;63.90;;;;;;5076684;28;20201;-84
2022/03/23 00:29:41;;;;;;;10.73;8.50;;;5.40;65.20;;;;;;5088906;28;20219;-84
2022/03/23 00:32:09;;;;;;;10.95;8.65;;;5.40;65.60;;;;;;5096383;28;20381;-84
2022/03/23 00:34:39;;;;;;;13.10;8.93;;;5.40;65.80;;;;;;5082918;28;20210;-84
2022/03/23 00:37:07;;;;;;;9.20;7.80;;;5.40;65.70;;;;;;5075764;28;20249;-84
2022/03/23 00:39:36;;;;;;;10.95;8.07;;;5.30;65.30;;;;;;5093194;28;20239;-84
2022/03/23 00:42:04;;;;;;;7.90;7.10;;;5.30;65.70;;;;;;5079206;28;20311;-84
2022/03/23 00:44:32;;;;;;;10.80;8.20;;;5.30;65.80;;;;;;5076514;28;20205;-84
2022/03/23 00:47:01;;;;;;;15.75;8.85;;;5.30;66.50;;;;;;5078577;28;20289;-84
2022/03/23 00:49:29;;;;;;;8.68;7.78;;;5.20;66.10;;;;;;5076575;28;20292;-84
2022/03/23 00:52:02;;;;;;;24.02;7.88;;;5.20;66.90;;;;;;5077869;28;20304;-84
2022/03/23 00:54:30;;;;;;;11.15;7.90;;;5.20;67.30;;;;;;5079111;28;20197;-84
2022/03/23 00:56:59;;;;;;;12.38;7.97;;;5.20;66.60;;;;;;5096297;28;20255;-84
2022/03/23 00:59:28;;;;;;;13.07;8.30;;;5.20;67.10;;;;;;5092318;28;20209;-85
2022/03/23 01:01:57;;;;;;;10.60;7.55;;;5.20;67.60;;;;;;5075316;28;20240;-83
2022/03/23 01:04:27;;;;;;;11.70;7.90;;;5.20;68.30;;;;;;5075672;28;20197;-84
2022/03/23 01:06:55;;;;;;;7.97;7.22;;;5.10;68.40;;;;;;5075592;28;20205;-84
2022/03/23 01:09:25;;;;;;;18.90;7.47;;;5.10;68.80;;;;;;5086644;28;20216;-85
2022/03/23 01:11:55;;;;;;;10.15;7.82;;;5.00;68.50;;;;;;5095826;28;20228;-84
2022/03/23 01:14:25;;;;;;;9.75;7.88;;;5.00;69.20;;;;;;5080730;28;20197;-85
2022/03/23 01:16:54;;;;;;;9.23;7.25;;;5.00;70.10;;;;;;5075229;28;20271;-85
2022/03/23 01:19:25;;;;;;;10.63;7.78;;;5.00;69.70;;;;;;5074924;28;20288;-85
2022/03/23 01:21:55;;;;;;;9.93;6.97;;;4.90;70.00;;;;;;5075130;28;20240;-84
2022/03/23 01:24:25;;;;;;;18.42;7.70;;;4.90;70.30;;;;;;5075209;28;20269;-84
2022/03/23 01:26:56;;;;;;;13.13;7.97;;;4.90;71.00;;;;;;5078247;28;20193;-84
2022/03/23 01:29:25;;;;;;;8.13;7.22;;;4.90;71.10;;;;;;5095568;28;20200;-84
2022/03/23 01:31:54;;;;;;;9.73;7.82;;;4.90;71.40;;;;;;5089159;28;20231;-84
2022/03/23 01:34:23;;;;;;;8.43;7.53;;;4.90;69.90;;;;;;5075111;28;20258;-84
2022/03/23 01:36:51;;;;;;;8.35;6.50;;;4.80;69.60;;;;;;5083547;28;20252;-84
2022/03/23 01:39:20;;;;;;;11.07;8.27;;;4.80;70.00;;;;;;5095118;28;20212;-84
2022/03/23 01:41:50;;;;;;;9.63;7.25;;;4.80;71.60;;;;;;5084963;28;20217;-84
2022/03/23 01:44:21;;;;;;;8.80;7.15;;;4.80;71.70;;;;;;5074984;28;20197;-85
2022/03/23 01:47:01;;;;;;;8.05;6.43;;;4.70;71.50;;;;;;5088364;28;20246;-85
2022/03/23 01:49:30;;;;;;;10.70;7.60;;;4.70;72.00;;;;;;5083235;28;20212;-84
2022/03/23 01:51:59;;;;;;;10.77;6.03;;;4.70;72.00;;;;;;5074293;28;20228;-84
2022/03/23 01:54:27;;;;;;;7.63;6.75;;;4.70;73.00;;;;;;5086005;28;20284;-85
2022/03/23 01:57:00;;;;;;;8.07;6.53;;;4.60;72.20;;;;;;5094335;28;20208;-84
2022/03/23 01:59:29;;;;;;;8.43;5.80;;;4.60;71.90;;;;;;5094753;28;20287;-84
2022/03/23 02:02:00;;;;;;;10.23;6.68;;;4.60;71.30;;;;;;5077028;28;20267;-84
2022/03/23 02:04:29;;;;;;;7.70;6.95;;;4.60;71.50;;;;;;5074374;28;20224;-84
2022/03/23 02:06:57;;;;;;;10.38;6.63;;;4.60;72.80;;;;;;5074196;28;20214;-84
2022/03/23 02:09:27;;;;;;;7.53;6.70;;;4.60;72.60;;;;;;5074491;28;20203;-84
2022/03/23 02:11:58;;;;;;;10.98;6.25;;;4.60;74.20;;;;;;5092911;28;20275;-83
2022/03/23 02:14:27;;;;;;;6.22;5.63;;;4.50;73.50;;;;;;5094178;28;20211;-84
2022/03/23 02:16:56;;;;;;;9.57;6.57;;;4.40;74.60;;;;;;5094255;28;20277;-84
2022/03/23 02:19:25;;;;;;;5.95;5.35;;;4.40;74.10;;;;;;5090919;28;20193;-84
2022/03/23 02:21:56;;;;;;;6.45;5.85;;;4.40;74.70;;;;;;5094109;28;20248;-84
2022/03/23 02:24:31;;;;;;;9.80;6.90;;;4.40;75.30;;;;;;5087440;28;20197;-84
2022/03/23 02:27:01;;;;;;;8.15;6.47;;;4.40;74.80;;;;;;5074031;28;20279;-84
2022/03/23 02:29:32;;;;;;;8.93;5.57;;;4.30;74.50;;;;;;5077063;28;20197;-84
2022/03/23 02:32:04;;;;;;;9.80;6.13;;;4.30;74.50;;;;;;5073928;28;20217;-84
2022/03/23 02:34:36;;;;;;;8.38;5.63;;;4.30;75.70;;;;;;5087288;28;20196;-84
2022/03/23 02:37:08;;;;;;;9.85;6.13;;;4.30;75.00;;;;;;5074533;28;20208;-83
2022/03/23 02:39:39;;;;;;;8.85;6.40;;;4.30;75.30;;;;;;5074280;28;20287;-84
2022/03/23 02:42:08;;;;;;;7.95;6.38;;;4.30;75.80;;;;;;5073572;28;20221;-84
2022/03/23 02:44:37;;;;;;;7.22;6.22;;;4.20;77.00;;;;;;5087379;28;20196;-84
2022/03/23 02:47:07;;;;;;;6.32;5.72;;;4.20;77.00;;;;;;5093883;28;20257;-84
2022/03/23 02:49:35;;;;;;;17.98;7.80;;;4.20;77.00;;;;;;5079810;28;20232;-84
2022/03/23 02:52:10;;;;;;;6.45;5.10;;;4.20;76.10;;;;;;5073243;28;20228;-84
2022/03/23 03:03:26;;;;;;;7.25;5.35;;;4.10;79.30;;;;;;5092982;28;20196;-85
2022/03/23 03:05:55;;;;;;;6.47;5.70;;;4.00;80.00;;;;;;5093766;28;20204;-84
2022/03/23 03:11:11;;;;;;;8.85;5.95;;;4.10;78.40;;;;;;5075766;28;20221;-84
2022/03/23 03:13:41;;;;;;;5.78;5.22;;;4.10;79.40;;;;;;5073347;28;20212;-84
2022/03/23 03:16:10;;;;;;;6.88;5.80;;;4.10;79.40;;;;;;5078272;28;20215;-84
2022/03/23 03:18:38;;;;;;;6.13;5.53;;;4.10;79.40;;;;;;5093467;28;20242;-84
2022/03/23 03:21:10;;;;;;;7.78;5.93;;;4.10;79.00;;;;;;5084950;28;20229;-84
2022/03/23 03:23:44;;;;;;;8.77;6.22;;;4.10;78.60;;;;;;5073259;28;20209;-84
2022/03/23 03:26:14;;;;;;;6.35;5.22;;;4.10;78.80;;;;;;5084728;28;20218;-83
2022/03/23 03:28:43;;;;;;;18.05;6.07;;;4.10;80.40;;;;;;5093821;28;20193;-83
2022/03/23 03:31:14;;;;;;;8.13;6.68;;;4.00;80.40;;;;;;5077873;28;20248;-83
2022/03/23 03:33:44;;;;;;;6.63;5.80;;;4.00;80.20;;;;;;5073313;28;20235;-84
2022/03/23 03:36:20;;;;;;;5.75;5.15;;;4.00;80.10;;;;;;5080068;28;20188;-83
2022/03/23 03:38:54;;;;;;;7.50;5.55;;;4.00;81.40;;;;;;5074549;28;20223;-84
2022/03/23 03:41:23;;;;;;;7.78;5.88;;;4.00;81.20;;;;;;5073241;28;20229;-84
2022/03/23 03:43:52;;;;;;;5.50;5.00;;;3.90;81.60;;;;;;5073423;28;20197;-84
2022/03/23 03:46:21;;;;;;;6.72;5.55;;;3.90;82.10;;;;;;5073099;28;20256;-83
2022/03/23 03:48:50;;;;;;;8.93;6.45;;;3.80;83.80;;;;;;5077774;28;20201;-83
2022/03/23 03:51:23;;;;;;;7.15;5.82;;;3.80;83.20;;;;;;5089331;28;20303;-83
2022/03/23 03:53:53;;;;;;;6.32;5.13;;;3.80;83.70;;;;;;5072757;28;20335;-84
2022/03/23 03:56:24;;;;;;;21.58;5.97;;;3.80;83.60;;;;;;5078012;28;20300;-84
2022/03/23 03:58:53;;;;;;;7.53;5.60;;;3.70;84.40;;;;;;5092717;28;20285;-83
2022/03/23 04:01:21;;;;;;;8.48;6.13;;;3.70;84.50;;;;;;5083958;28;20282;-82
2022/03/23 04:03:55;;;;;;;7.88;5.43;;;3.60;86.30;;;;;;5072972;28;20204;-84
2022/03/23 04:06:23;;;;;;;9.55;5.85;;;3.60;85.80;;;;;;5074302;28;20266;-84
2022/03/23 04:08:55;;;;;;;30.73;5.80;;;3.60;87.10;;;;;;5072959;28;20197;-83
2022/03/23 04:11:26;;;;;;;9.13;6.32;;;3.60;85.60;;;;;;5076353;28;20304;-84
2022/03/23 04:13:59;;;;;;;7.45;5.80;;;3.60;86.30;;;;;;5074915;28;20209;-83
2022/03/23 04:16:30;;;;;;;5.82;4.20;;;3.60;85.70;;;;;;5092311;28;20197;-83
2022/03/23 04:19:00;;;;;;;6.28;5.47;;;3.70;85.20;;;;;;5095371;28;20236;-84
2022/03/23 04:21:29;;;;;;;6.55;5.90;;;3.70;85.00;;;;;;5076532;28;20223;-84
2022/03/23 04:23:59;;;;;;;6.35;5.47;;;3.70;84.00;;;;;;5076474;28;20326;-84
2022/03/23 04:26:28;;;;;;;6.10;5.35;;;3.80;84.10;;;;;;5076530;28;20292;-84
2022/03/23 04:28:59;;;;;;;6.05;5.50;;;3.70;84.60;;;;;;5081626;28;20201;-83
2022/03/23 04:31:28;;;;;;;10.98;6.30;;;3.80;85.10;;;;;;5077166;28;20232;-84
2022/03/23 04:33:59;;;;;;;9.55;6.72;;;3.80;84.50;;;;;;5077182;28;20201;-83
2022/03/23 04:36:30;;;;;;;6.18;5.55;;;3.80;84.70;;;;;;5076448;28;20204;-83
2022/03/23 04:39:00;;;;;;;8.38;6.15;;;3.80;84.70;;;;;;5088656;28;20213;-84
2022/03/23 04:41:31;;;;;;;7.07;6.38;;;3.90;85.00;;;;;;5096537;28;20231;-84
2022/03/23 04:44:04;;;;;;;7.10;6.05;;;3.90;86.50;;;;;;5080200;28;20200;-84
2022/03/23 04:46:33;;;;;;;13.30;6.20;;;3.90;85.70;;;;;;5075840;28;20209;-84
2022/03/23 04:49:05;;;;;;;9.45;6.22;;;3.90;86.10;;;;;;5095176;28;20205;-85
2022/03/23 04:51:34;;;;;;;7.47;5.65;;;3.80;85.60;;;;;;5094178;28;20232;-84
2022/03/23 04:54:05;;;;;;;10.85;6.40;;;3.80;85.00;;;;;;5076059;28;20212;-84
2022/03/23 04:56:34;;;;;;;9.50;6.88;;;3.80;85.30;;;;;;5080271;28;20388;-84
2022/03/23 04:59:04;;;;;;;7.45;6.70;;;3.80;85.70;;;;;;5095828;28;20228;-84
2022/03/23 05:01:33;;;;;;;10.82;7.10;;;3.80;85.10;;;;;;5093760;28;20213;-84
2022/03/23 05:04:02;;;;;;;7.25;6.45;;;3.80;88.00;;;;;;5096001;28;20212;-84
2022/03/23 05:06:34;;;;;;;9.05;6.97;;;3.80;87.40;;;;;;5095268;28;20192;-84
2022/03/23 05:09:05;;;;;;;6.53;5.80;;;3.80;88.90;;;;;;5095930;28;20193;-84
2022/03/23 05:11:34;;;;;;;11.27;7.72;;;3.90;88.70;;;;;;5086118;28;20213;-84
2022/03/23 05:14:03;;;;;;;10.48;6.18;;;3.90;88.30;;;;;;5075589;28;20212;-84
2022/03/23 05:16:31;;;;;;;8.20;7.00;;;3.90;88.90;;;;;;5086901;28;20262;-84
2022/03/23 05:19:00;;;;;;;9.23;6.78;;;3.90;87.50;;;;;;5095408;28;20246;-83
2022/03/23 05:21:28;;;;;;;10.32;7.40;;;3.90;87.40;;;;;;5091739;28;20224;-84
2022/03/23 05:23:57;;;;;;;7.00;5.82;;;3.90;87.60;;;;;;5095500;28;20209;-84
2022/03/23 05:26:27;;;;;;;9.15;6.82;;;4.00;88.20;;;;;;5093400;28;20232;-84
2022/03/23 05:28:58;;;;;;;20.27;5.93;;;4.00;89.00;;;;;;5095501;28;20196;-83
2022/03/23 05:31:29;;;;;;;8.48;6.63;;;4.00;88.00;;;;;;5092101;28;20220;-83
2022/03/23 05:33:58;;;;;;;12.63;7.20;;;4.00;89.80;;;;;;5077452;28;20266;-83
2022/03/23 05:36:26;;;;;;;9.07;7.13;;;4.00;88.50;;;;;;5075356;28;20205;-83
2022/03/23 05:38:59;;;;;;;9.38;7.57;;;4.10;89.60;;;;;;5074959;28;20217;-84
2022/03/23 05:41:29;;;;;;;8.95;7.10;;;4.10;88.90;;;;;;5075040;28;20240;-84
2022/03/23 05:43:58;;;;;;;10.93;7.32;;;4.20;88.80;;;;;;5078475;28;20266;-83
2022/03/23 05:46:29;;;;;;;7.85;6.80;;;4.30;88.00;;;;;;5095203;28;20214;-83
2022/03/23 05:48:59;;;;;;;12.38;6.75;;;4.20;86.90;;;;;;5081157;28;20205;-84
2022/03/23 05:51:35;;;;;;;7.50;6.20;;;4.30;85.60;;;;;;5094764;28;20220;-84
2022/03/23 05:54:10;;;;;;;6.85;6.22;;;4.30;85.20;;;;;;5074859;28;20288;-84
2022/03/23 05:56:43;;;;;;;12.15;8.65;;;4.40;85.90;;;;;;5075325;28;20269;-84
2022/03/23 05:59:14;;;;;;;9.10;7.10;;;4.50;85.30;;;;;;5094426;28;20250;-84
2022/03/23 06:01:50;;;;;;;11.43;7.75;;;4.50;84.70;;;;;;5087919;28;20232;-84
2022/03/23 06:04:22;;;;;;;9.23;7.72;;;4.60;84.00;;;;;;5075659;28;20248;-83
2022/03/23 06:06:58;;;;;;;8.90;7.70;;;4.70;84.30;;;;;;5082060;28;20204;-83
2022/03/23 06:09:27;;;;;;;11.00;9.15;;;4.70;82.10;;;;;;5094822;28;20201;-84
2022/03/23 06:12:01;;;;;;;14.07;10.13;;;4.80;80.40;;;;;;5086203;28;20225;-84
2022/03/23 06:14:29;;;;;;;13.80;10.00;;;4.90;78.40;;;;;;5074614;28;20198;-84
2022/03/23 06:17:00;;;;;;;11.55;9.48;;;4.90;78.30;;;;;;5086842;28;20198;-84
2022/03/23 06:19:28;;;;;;;12.00;8.85;;;4.90;77.00;;;;;;5093343;28;20216;-84
2022/03/23 06:21:59;;;;;;;13.25;8.70;;;5.00;76.60;;;;;;5081992;28;20237;-84
2022/03/23 06:24:28;;;;;;;13.90;9.75;;;5.10;76.50;;;;;;5074266;28;20211;-83
2022/03/23 06:26:59;;;;;;;11.45;9.32;;;5.10;76.60;;;;;;5087110;28;20200;-84
2022/03/23 06:29:29;;;;;;;12.65;9.65;;;5.20;74.90;;;;;;5094243;28;20362;-84
2022/03/23 06:31:58;;;;;;;11.27;9.27;;;5.20;73.70;;;;;;5090023;28;20220;-83
2022/03/23 06:37:57;;;;;;;13.35;8.95;;;5.30;74.00;;;;;;5071885;28;20207;-83
2022/03/23 06:40:25;;;;;;;13.48;10.15;;;5.40;73.70;;;;;;5082063;28;20277;-86
2022/03/23 06:42:55;;;;;;;14.02;9.82;;;5.40;75.10;;;;;;5093154;28;20197;-87
2022/03/23 06:45:31;;;;;;;13.90;10.30;;;5.50;75.60;;;;;;5092386;28;20196;-86
2022/03/23 06:48:03;;;;;;;12.20;9.27;;;5.60;73.20;;;;;;5091171;28;20195;-84
2022/03/23 06:50:32;;;;;;;11.90;9.77;;;5.60;74.60;;;;;;5085088;28;20185;-85
2022/03/23 06:53:01;;;;;;;12.07;9.00;;;5.70;76.70;;;;;;5094261;28;20219;-84
2022/03/23 06:55:29;;;;;;;14.00;10.38;;;5.80;76.00;;;;;;5078718;28;20201;-84
2022/03/23 06:57:59;;;;;;;11.88;9.10;;;5.80;75.30;;;;;;5091336;28;20208;-85
2022/03/23 07:00:28;;;;;;;13.88;9.63;;;5.90;76.20;;;;;;5086920;28;20212;-86
2022/03/23 07:03:17;;;;;;;12.45;9.02;;;6.00;74.60;;;;;;5093263;28;20200;-85
2022/03/23 07:05:53;;;;;;;14.45;9.93;;;6.10;74.70;;;;;;5078680;28;20208;-85
2022/03/23 07:11:35;;;;;;;10.18;9.15;;;6.20;75.80;;;;;;5080470;28;20311;-85
2022/03/23 07:14:11;;;;;;;12.85;10.23;;;6.30;76.40;;;;;;5090245;28;20192;-85
2022/03/23 07:23:09;;;;;;;10.80;8.95;;;6.50;76.80;;;;;;5092919;28;20228;-86
2022/03/23 07:25:58;;;;;;;11.73;9.85;;;6.60;71.90;;;;;;5093320;28;20197;-86
2022/03/23 07:28:35;;;;;;;22.60;9.95;;;6.70;71.30;;;;;;5093198;28;20223;-85
2022/03/23 07:31:51;;;;;;;10.35;9.23;;;6.80;71.90;;;;;;5078416;28;20231;-86
2022/03/23 07:34:31;;;;;;;16.85;10.93;;;6.90;69.50;;;;;;5088739;28;20230;-87
2022/03/23 07:38:18;;;;;;;12.57;10.18;;;7.00;67.20;;;;;;5076387;28;20279;-87
2022/03/23 07:41:19;;;;;;;12.38;9.00;;;7.30;65.20;;;;;;5087185;28;20227;-86
2022/03/23 07:48:23;;;;;;;10.35;7.63;;;7.60;63.20;;;;;;5085608;28;20204;-87
2022/03/23 07:51:00;;;;;;;10.25;8.82;;;7.80;61.80;;;;;;5097037;28;20246;-86
2022/03/23 07:53:31;;;;;;;8.88;6.45;;;7.90;62.70;;;;;;5094766;28;20220;-85
2022/03/23 07:56:00;;;;;;;9.13;7.18;;;8.10;61.40;;;;;;5088392;28;20227;-83
2022/03/23 08:06:21;;;;;;;9.52;8.38;;;8.60;60.30;;;;;;4841621;29;20213;-82
2022/03/23 08:08:50;;;;;;;9.40;8.40;;;8.80;59.10;;;;;;4890513;29;20251;-84
2022/03/23 08:14:46;;;;;;;11.63;8.50;;;9.20;58.60;;;;;;4941713;28;20242;-83
2022/03/23 08:17:19;;;;;;;14.23;9.68;;;9.50;60.40;;;;;;4975050;28;20215;-82
2022/03/23 08:22:42;;;;;;;9.25;8.18;;;9.90;57.50;;;;;;4978130;28;20248;-83
2022/03/23 08:25:14;;;;;;;9.02;6.55;;;10.10;56.00;;;;;;4977514;28;20290;-83
2022/03/23 08:27:42;;;;;;;10.35;7.88;;;10.30;54.40;;;;;;4990641;28;20205;-82
2022/03/23 08:30:12;;;;;;;8.82;6.68;;;10.50;54.50;;;;;;5014399;28;20218;-82
2022/03/23 08:32:40;;;;;;;7.57;6.88;;;10.60;53.90;;;;;;5054221;28;20361;-83
2022/03/23 08:35:09;;;;;;;7.18;6.55;;;10.90;53.50;;;;;;5059293;28;20206;-83
2022/03/23 08:37:38;;;;;;;9.57;6.97;;;11.20;53.20;;;;;;5057307;28;20328;-83
2022/03/23 08:40:09;;;;;;;10.38;8.05;;;11.60;52.80;;;;;;5072481;28;20216;-82
2022/03/23 08:42:38;;;;;;;7.93;6.90;;;11.80;51.80;;;;;;5076036;28;20251;-82
2022/03/23 08:45:08;;;;;;;10.00;8.35;;;12.00;51.20;;;;;;5077255;28;20232;-82
2022/03/23 08:47:38;;;;;;;15.95;8.48;;;12.30;50.80;;;;;;5075945;28;20208;-83
2022/03/23 08:50:09;;;;;;;9.52;7.38;;;13.20;50.50;;;;;;5076045;28;20385;-82
2022/03/23 08:52:39;;;;;;;8.40;7.60;;;14.30;49.60;;;;;;5092751;28;20289;-82
2022/03/23 08:55:14;;;;;;;10.10;6.97;;;15.40;47.70;;;;;;5096486;28;20242;-81
2022/03/23 08:57:43;;;;;;;8.23;7.28;;;16.90;46.20;;;;;;5095673;28;20211;-81
2022/03/23 09:00:13;;;;;;;8.63;7.80;;;19.20;44.80;;;;;;5094991;28;20228;-82
2022/03/23 09:02:41;;;;;;;10.05;7.70;;;21.10;40.20;;;;;;5095649;28;20308;-83
2022/03/23 09:05:14;;;;;;;10.43;8.48;;;22.00;38.40;;;;;;5076064;28;20232;-82
2022/03/23 09:07:43;;;;;;;7.88;7.18;;;22.30;36.40;;;;;;5075624;28;20205;-81
2022/03/23 09:10:14;;;;;;;9.68;7.65;;;23.00;37.20;;;;;;5075153;28;20208;-82
2022/03/23 09:12:44;;;;;;;8.68;7.72;;;22.90;35.30;;;;;;5075558;28;20232;-83
2022/03/23 09:15:14;;;;;;;9.93;8.98;;;23.00;34.80;;;;;;5076646;28;20264;-82
2022/03/23 09:17:43;;;;;;;9.32;8.30;;;23.60;35.90;;;;;;5079265;28;20252;-83
2022/03/23 09:20:14;;;;;;;9.27;8.38;;;23.80;35.80;;;;;;5086101;28;20217;-83
2022/03/23 09:22:44;;;;;;;11.88;8.02;;;24.80;36.40;;;;;;5081552;28;20225;-83
2022/03/23 09:25:15;;;;;;;14.63;8.32;;;25.50;34.10;;;;;;5088232;28;20229;-83
2022/03/23 09:28:11;;;;;;;11.48;9.68;;;26.30;36.40;;;;;;5086604;28;20232;-83
2022/03/23 09:30:41;;;;;;;9.55;8.70;;;25.70;33.20;;;;;;5094407;28;20196;-83
2022/03/23 09:33:09;;;;;;;8.70;7.90;;;25.40;34.90;;;;;;5095287;28;20213;-83
2022/03/23 09:35:38;;;;;;;10.13;8.27;;;25.60;34.10;;;;;;5095282;28;20231;-82
2022/03/23 09:38:08;;;;;;;9.55;8.10;;;25.80;34.70;;;;;;5094736;28;20204;-82
2022/03/23 09:40:38;;;;;;;12.30;8.48;;;25.40;33.50;;;;;;5094723;28;20299;-82
2022/03/23 09:43:11;;;;;;;9.05;8.10;;;25.60;33.00;;;;;;5088780;28;20235;-82
2022/03/23 09:45:49;;;;;;;9.02;8.18;;;25.70;35.20;;;;;;5075025;28;20293;-83
2022/03/23 09:48:21;;;;;;;10.50;9.50;;;25.40;33.50;;;;;;5074684;28;20201;-83
2022/03/23 09:50:52;;;;;;;11.90;9.45;;;25.30;35.20;;;;;;5074586;28;20262;-82
2022/03/23 09:56:10;;;;;;;9.57;8.65;;;25.50;33.50;;;;;;5081125;28;20196;-82
2022/03/23 09:58:42;;;;;;;9.40;8.52;;;25.10;33.70;;;;;;5093400;28;20216;-82
2022/03/23 10:01:53;;;;;;;10.85;9.80;;;24.70;32.80;;;;;;5093532;28;20231;-82
2022/03/23 10:05:14;;;;;;;10.18;9.15;;;24.50;32.20;;;;;;4984729;28;20209;-84
2022/03/23 10:07:52;;;;;;;9.88;8.80;;;24.60;34.60;;;;;;5074274;28;20232;-84
2022/03/23 10:11:19;;;;;;;9.48;8.68;;;25.30;34.30;;;;;;5075174;28;20306;-83
2022/03/23 10:14:41;;;;;;;9.43;8.60;;;25.80;34.10;;;;;;5080747;28;20247;-84
2022/03/23 10:17:43;;;;;;;8.88;8.15;;;25.60;33.40;;;;;;5094358;28;20259;-84
2022/03/23 10:20:13;;;;;;;8.65;7.90;;;25.10;33.30;;;;;;5076762;28;20232;-84
2022/03/23 10:22:49;;;;;;;10.55;8.20;;;24.70;32.50;;;;;;5077387;28;20279;-86
2022/03/23 10:25:20;;;;;;;14.98;8.32;;;24.10;33.00;;;;;;5073926;28;20228;-83
2022/03/23 10:27:49;;;;;;;10.90;8.32;;;23.50;33.60;;;;;;5082022;28;20246;-83
2022/03/23 10:30:17;;;;;;;15.18;10.05;;;23.80;33.00;;;;;;5093689;28;20204;-85
2022/03/23 10:32:48;;;;;;;9.18;8.27;;;24.10;33.90;;;;;;5093354;28;20242;-85
2022/03/23 10:35:17;;;;;;;10.77;8.23;;;23.90;32.30;;;;;;5094225;28;20200;-85
2022/03/23 10:37:48;;;;;;;8.70;7.93;;;24.00;33.80;;;;;;5093971;28;20283;-82
2022/03/23 10:40:19;;;;;;;10.90;8.13;;;24.30;34.50;;;;;;5093896;28;20196;-87
2022/03/23 10:42:50;;;;;;;9.63;7.80;;;24.60;31.90;;;;;;5093688;28;20230;-87
2022/03/23 10:45:20;;;;;;;8.52;7.75;;;24.50;32.40;;;;;;5082320;28;20243;-88
2022/03/23 10:47:50;;;;;;;10.18;9.13;;;24.60;33.00;;;;;;5075053;28;20198;-88
2022/03/23 10:50:20;;;;;;;9.30;8.40;;;24.40;32.30;;;;;;5073587;28;20274;-89
2022/03/23 10:52:56;;;;;;;10.13;8.13;;;24.70;32.60;;;;;;5073512;28;20217;-88
2022/03/23 10:55:26;;;;;;;9.32;8.25;;;25.00;32.40;;;;;;5072856;28;20266;-87
2022/03/23 10:58:20;;;;;;;12.70;8.85;;;25.20;32.00;;;;;;5073290;28;20209;-87
2022/03/23 11:00:49;;;;;;;13.20;9.38;;;25.20;32.00;;;;;;5072654;28;20302;-87
2022/03/23 11:03:19;;;;;;;9.25;8.40;;;25.40;31.70;;;;;;5073032;28;20201;-89
2022/03/23 11:05:49;;;;;;;9.63;8.73;;;25.70;31.40;;;;;;5073042;28;20207;-87
2022/03/23 11:08:22;;;;;;;8.95;8.05;;;25.90;31.00;;;;;;5073910;28;20272;-88
2022/03/23 11:16:43;;;;;;;7.60;6.78;;;26.10;31.60;;;;;;5011487;28;20202;-87
2022/03/23 11:19:19;;;;;;;9.40;8.07;;;25.90;30.40;;;;;;5011624;28;20246;-87
2022/03/23 11:22:01;;;;;;;10.93;8.00;;;26.40;30.00;;;;;;5047183;28;20229;-88
2022/03/23 11:24:31;;;;;;;10.32;8.07;;;26.70;30.20;;;;;;5072792;28;20192;-86
2022/03/23 11:27:00;;;;;;;10.30;9.13;;;26.40;30.00;;;;;;5072929;28;20209;-86
2022/03/23 11:29:31;;;;;;;9.73;8.05;;;26.20;30.40;;;;;;5073214;28;20201;-87
2022/03/23 11:32:04;;;;;;;9.32;8.45;;;26.20;30.00;;;;;;5072519;28;20233;-87
2022/03/23 11:34:36;;;;;;;9.88;7.88;;;26.20;30.00;;;;;;5072835;28;20208;-87
2022/03/23 11:37:07;;;;;;;8.15;7.35;;;26.30;30.00;;;;;;5073300;28;20205;-87
2022/03/23 11:39:36;;;;;;;9.48;8.10;;;26.40;30.00;;;;;;5092650;28;20255;-87
2022/03/23 11:42:06;;;;;;;8.80;7.97;;;26.60;30.10;;;;;;5091655;28;20217;-87
2022/03/23 11:44:37;;;;;;;9.73;7.93;;;27.00;30.10;;;;;;5089214;28;20189;-87
2022/03/23 11:47:10;;;;;;;8.60;7.68;;;27.20;29.80;;;;;;5073300;28;20201;-87
2022/03/23 11:49:50;;;;;;;8.02;7.32;;;27.60;29.40;;;;;;5079802;28;20205;-87
2022/03/23 11:52:32;;;;;;;8.38;7.40;;;27.80;29.20;;;;;;5087663;28;20216;-87
2022/03/23 11:58:16;;;;;;;10.98;8.48;;;27.80;29.60;;;;;;5079062;28;20235;-87
2022/03/23 12:00:51;;;;;;;8.13;7.45;;;28.10;29.20;;;;;;5092485;28;20208;-87
2022/03/23 12:03:48;;;;;;;17.60;9.68;;;28.20;29.20;;;;;;5084254;28;20213;-87
2022/03/23 12:06:20;;;;;;;8.80;7.90;;;28.20;29.40;;;;;;5081400;28;20201;-86
2022/03/23 12:08:55;;;;;;;9.80;7.85;;;28.20;28.80;;;;;;5092517;28;20228;-86
2022/03/23 12:11:51;;;;;;;9.23;8.10;;;28.30;28.90;;;;;;5082673;28;20214;-86
2022/03/23 12:14:25;;;;;;;7.80;7.10;;;27.90;28.30;;;;;;5048579;28;20232;-87
2022/03/23 12:17:18;;;;;;;9.20;7.35;;;27.20;28.10;;;;;;5072736;28;20197;-87
2022/03/23 12:19:58;;;;;;;11.88;7.53;;;27.20;28.90;;;;;;5072881;28;20270;-87
2022/03/23 12:23:00;;;;;;;9.82;7.88;;;27.50;29.30;;;;;;5092022;28;20258;-86
2022/03/23 12:25:36;;;;;;;8.38;7.57;;;27.90;28.60;;;;;;5081706;28;20275;-88
2022/03/23 12:28:18;;;;;;;7.95;7.25;;;27.90;28.40;;;;;;5093080;28;20228;-88
2022/03/23 12:31:02;;;;;;;8.40;7.32;;;27.90;28.20;;;;;;5079468;28;20212;-86
2022/03/23 12:33:31;;;;;;;7.72;7.03;;;27.90;28.10;;;;;;5092781;28;20284;-87
2022/03/23 12:36:01;;;;;;;7.45;6.85;;;27.70;28.10;;;;;;5082797;28;20212;-87
2022/03/23 12:38:32;;;;;;;7.57;6.90;;;27.60;28.00;;;;;;5092737;28;20208;-87
2022/03/23 12:41:04;;;;;;;12.00;7.38;;;27.70;28.00;;;;;;5085910;28;20217;-87
2022/03/23 12:43:37;;;;;;;8.15;7.30;;;27.60;27.80;;;;;;5075615;28;20360;-86
2022/03/23 12:46:17;;;;;;;7.25;6.65;;;27.70;28.10;;;;;;5084527;28;20196;-87
2022/03/23 12:57:53;;;;;;;7.70;6.90;;;27.20;28.00;;;;;;5078203;28;20205;-87
2022/03/23 13:00:29;;;;;;;12.35;7.40;;;27.20;28.00;;;;;;5075470;28;20217;-87
2022/03/23 13:03:33;;;;;;;6.30;5.70;;;26.90;27.80;;;;;;5077748;28;20354;-88
2022/03/23 13:06:10;;;;;;;5.80;5.28;;;26.90;27.70;;;;;;5057575;28;20265;-87
2022/03/23 13:08:46;;;;;;;6.25;5.47;;;26.90;26.90;;;;;;5075266;28;20197;-87
2022/03/23 13:11:20;;;;;;;6.70;6.07;;;27.00;26.80;;;;;;5090162;28;20289;-87
2022/03/23 13:13:51;;;;;;;7.53;6.25;;;26.90;27.20;;;;;;5095653;28;20207;-87
2022/03/23 13:16:24;;;;;;;6.25;5.65;;;27.10;27.50;;;;;;5079029;28;20201;-87
2022/03/23 13:18:55;;;;;;;5.55;5.07;;;27.30;27.20;;;;;;5075696;28;20197;-88
2022/03/23 13:21:25;;;;;;;6.28;5.68;;;27.20;26.80;;;;;;5081371;28;20244;-87
2022/03/23 13:23:56;;;;;;;7.38;6.10;;;27.20;26.70;;;;;;5083164;28;20217;-88
2022/03/23 13:26:34;;;;;;;6.20;5.55;;;27.20;26.50;;;;;;5081077;28;20200;-87
2022/03/23 13:29:07;;;;;;;9.20;5.10;;;27.10;26.10;;;;;;5085023;28;20223;-88
2022/03/23 13:31:38;;;;;;;6.68;5.95;;;27.00;26.00;;;;;;5074749;28;20217;-88
2022/03/23 13:34:09;;;;;;;7.18;5.75;;;26.70;26.00;;;;;;5075402;28;20201;-88
2022/03/23 13:36:50;;;;;;;10.32;6.07;;;26.50;26.20;;;;;;5095072;28;20228;-88
2022/03/23 13:39:19;;;;;;;6.40;5.20;;;26.30;26.30;;;;;;5089187;28;20193;-87
2022/03/23 13:47:31;;;;;;;7.93;5.47;;;26.40;26.50;;;;;;5074055;28;20262;-88
2022/03/23 13:50:02;;;;;;;6.28;5.55;;;26.50;25.80;;;;;;5090719;28;20196;-84
2022/03/23 13:52:39;;;;;;;6.30;5.55;;;26.40;26.30;;;;;;5094702;28;20212;-84
2022/03/23 13:55:16;;;;;;;5.72;5.20;;;26.30;25.70;;;;;;5094754;28;20210;-83
2022/03/23 13:58:11;;;;;;;6.28;5.70;;;26.20;26.20;;;;;;5086779;28;20212;-84
2022/03/23 14:00:44;;;;;;;7.85;5.47;;;26.20;26.40;;;;;;5074722;28;20199;-84
2022/03/23 14:03:19;;;;;;;6.60;5.68;;;26.60;27.10;;;;;;5073918;28;20292;-83
2022/03/23 14:06:03;;;;;;;5.43;4.90;;;26.70;25.50;;;;;;5075547;28;20211;-85
2022/03/23 14:08:35;;;;;;;4.80;4.43;;;26.40;24.00;;;;;;5094254;28;20212;-85
2022/03/23 14:11:08;;;;;;;5.07;4.53;;;26.20;25.00;;;;;;5075923;28;20217;-85
2022/03/23 14:13:39;;;;;;;5.90;5.28;;;26.20;26.10;;;;;;5074267;28;20203;-84
2022/03/23 14:16:15;;;;;;;5.93;5.00;;;26.40;25.30;;;;;;5074367;28;20205;-84
2022/03/23 14:18:53;;;;;;;6.40;4.53;;;26.30;23.50;;;;;;5091958;28;20200;-83
2022/03/23 14:21:24;;;;;;;9.52;5.10;;;26.20;23.20;;;;;;5094271;28;20228;-84
2022/03/23 14:24:02;;;;;;;8.05;5.45;;;26.20;24.10;;;;;;5075372;28;20231;-84
2022/03/23 14:26:36;;;;;;;4.22;3.83;;;26.10;24.90;;;;;;5073735;28;20216;-84
2022/03/23 14:29:23;;;;;;;8.30;4.00;;;25.80;23.90;;;;;;5083667;28;20197;-77